sensor_id;sensor_type;location;lat;lon;timestamp;P1;durP1;ratioP1;P2;durP2;ratioP2
9294;SDS011;4686;44.496;11.324;2023-07-20T00:01:02;15.33;;;7.17;;
9294;SDS011;4686;44.496;11.324;2023-07-20T00:03:30;20.03;;;7.53;;
9294;SDS011;4686;44.496;11.324;2023-07-20T00:05:57;17.67;;;6.77;;
9294;SDS011;4686;44.496;11.324;2023-07-20T00:08:24;30.67;;;8.53;;
9294;SDS011;4686;44.496;11.324;2023-07-20T00:10:52;35.93;;;9.30;;
9294;SDS011;4686;44.496;11.324;2023-07-20T00:13:19;19.57;;;7.27;;
9294;SDS011;4686;44.496;11.324;2023-07-20T00:15:48;147.40;;;20.87;;
9294;SDS011;4686;44.496;11.324;2023-07-20T00:18:18;30.77;;;7.80;;
9294;SDS011;4686;44.496;11.324;2023-07-20T00:20:46;27.53;;;7.77;;
9294;SDS011;4686;44.496;11.324;2023-07-20T00:23:14;19.43;;;7.80;;
9294;SDS011;4686;44.496;11.324;2023-07-20T00:25:41;15.43;;;7.60;;
9294;SDS011;4686;44.496;11.324;2023-07-20T00:28:08;20.67;;;8.10;;
9294;SDS011;4686;44.496;11.324;2023-07-20T00:30:36;19.90;;;8.30;;
9294;SDS011;4686;44.496;11.324;2023-07-20T00:33:06;19.70;;;8.23;;
9294;SDS011;4686;44.496;11.324;2023-07-20T00:35:33;17.27;;;8.27;;
9294;SDS011;4686;44.496;11.324;2023-07-20T00:38:01;18.47;;;8.83;;
9294;SDS011;4686;44.496;11.324;2023-07-20T00:40:34;15.50;;;8.57;;
9294;SDS011;4686;44.496;11.324;2023-07-20T00:43:02;24.27;;;9.00;;
9294;SDS011;4686;44.496;11.324;2023-07-20T00:45:29;13.17;;;8.27;;
9294;SDS011;4686;44.496;11.324;2023-07-20T00:47:57;18.57;;;8.40;;
9294;SDS011;4686;44.496;11.324;2023-07-20T00:50:26;13.83;;;7.40;;
9294;SDS011;4686;44.496;11.324;2023-07-20T00:52:54;20.87;;;8.50;;
9294;SDS011;4686;44.496;11.324;2023-07-20T00:55:22;19.47;;;7.50;;
9294;SDS011;4686;44.496;11.324;2023-07-20T00:57:50;13.23;;;7.07;;
9294;SDS011;4686;44.496;11.324;2023-07-20T01:00:18;14.50;;;7.43;;
9294;SDS011;4686;44.496;11.324;2023-07-20T01:02:45;23.63;;;7.13;;
9294;SDS011;4686;44.496;11.324;2023-07-20T01:05:12;15.00;;;7.13;;
9294;SDS011;4686;44.496;11.324;2023-07-20T01:07:46;17.83;;;8.40;;
9294;SDS011;4686;44.496;11.324;2023-07-20T01:10:17;19.00;;;8.00;;
9294;SDS011;4686;44.496;11.324;2023-07-20T01:12:47;12.13;;;6.90;;
9294;SDS011;4686;44.496;11.324;2023-07-20T01:15:15;15.07;;;7.13;;
9294;SDS011;4686;44.496;11.324;2023-07-20T01:17:42;12.60;;;6.73;;
9294;SDS011;4686;44.496;11.324;2023-07-20T01:20:10;11.70;;;7.80;;
9294;SDS011;4686;44.496;11.324;2023-07-20T01:22:49;12.70;;;7.77;;
9294;SDS011;4686;44.496;11.324;2023-07-20T01:25:25;17.63;;;7.70;;
9294;SDS011;4686;44.496;11.324;2023-07-20T01:28:13;11.60;;;6.33;;
9294;SDS011;4686;44.496;11.324;2023-07-20T01:30:51;10.63;;;6.67;;
9294;SDS011;4686;44.496;11.324;2023-07-20T01:33:21;6.80;;;4.90;;
9294;SDS011;4686;44.496;11.324;2023-07-20T01:35:52;10.37;;;5.63;;
9294;SDS011;4686;44.496;11.324;2023-07-20T01:38:20;12.33;;;6.23;;
9294;SDS011;4686;44.496;11.324;2023-07-20T01:40:50;6.00;;;5.37;;
9294;SDS011;4686;44.496;11.324;2023-07-20T01:43:17;8.93;;;5.90;;
9294;SDS011;4686;44.496;11.324;2023-07-20T01:45:45;11.07;;;5.83;;
9294;SDS011;4686;44.496;11.324;2023-07-20T01:48:12;14.90;;;5.70;;
9294;SDS011;4686;44.496;11.324;2023-07-20T01:50:41;14.17;;;5.57;;
9294;SDS011;4686;44.496;11.324;2023-07-20T01:53:08;7.43;;;5.70;;
9294;SDS011;4686;44.496;11.324;2023-07-20T01:55:36;12.30;;;5.73;;
9294;SDS011;4686;44.496;11.324;2023-07-20T01:58:03;10.70;;;5.47;;
9294;SDS011;4686;44.496;11.324;2023-07-20T02:00:31;14.07;;;6.00;;
9294;SDS011;4686;44.496;11.324;2023-07-20T02:02:59;7.57;;;5.50;;
9294;SDS011;4686;44.496;11.324;2023-07-20T02:05:26;9.90;;;5.40;;
9294;SDS011;4686;44.496;11.324;2023-07-20T02:07:55;13.13;;;5.53;;
9294;SDS011;4686;44.496;11.324;2023-07-20T02:10:23;15.37;;;6.03;;
9294;SDS011;4686;44.496;11.324;2023-07-20T02:12:50;7.77;;;5.60;;
9294;SDS011;4686;44.496;11.324;2023-07-20T02:15:17;9.07;;;5.47;;
9294;SDS011;4686;44.496;11.324;2023-07-20T02:17:45;11.60;;;5.93;;
9294;SDS011;4686;44.496;11.324;2023-07-20T02:20:12;9.63;;;5.87;;
9294;SDS011;4686;44.496;11.324;2023-07-20T02:22:40;11.63;;;5.57;;
9294;SDS011;4686;44.496;11.324;2023-07-20T02:25:08;8.40;;;5.03;;
9294;SDS011;4686;44.496;11.324;2023-07-20T02:27:36;8.77;;;4.90;;
9294;SDS011;4686;44.496;11.324;2023-07-20T02:30:04;12.13;;;4.67;;
9294;SDS011;4686;44.496;11.324;2023-07-20T02:32:34;8.23;;;5.17;;
9294;SDS011;4686;44.496;11.324;2023-07-20T02:35:01;9.13;;;5.30;;
9294;SDS011;4686;44.496;11.324;2023-07-20T02:37:30;11.20;;;5.00;;
9294;SDS011;4686;44.496;11.324;2023-07-20T02:39:57;7.90;;;5.33;;
9294;SDS011;4686;44.496;11.324;2023-07-20T02:42:27;13.00;;;6.00;;
9294;SDS011;4686;44.496;11.324;2023-07-20T02:44:55;10.30;;;6.03;;
9294;SDS011;4686;44.496;11.324;2023-07-20T02:47:22;8.13;;;5.43;;
9294;SDS011;4686;44.496;11.324;2023-07-20T02:49:50;7.73;;;5.43;;
9294;SDS011;4686;44.496;11.324;2023-07-20T02:52:17;9.10;;;5.40;;
9294;SDS011;4686;44.496;11.324;2023-07-20T02:54:45;25.90;;;5.60;;
9294;SDS011;4686;44.496;11.324;2023-07-20T02:57:12;8.30;;;5.50;;
9294;SDS011;4686;44.496;11.324;2023-07-20T02:59:41;11.60;;;6.27;;
9294;SDS011;4686;44.496;11.324;2023-07-20T03:02:08;6.33;;;5.27;;
9294;SDS011;4686;44.496;11.324;2023-07-20T03:04:36;9.83;;;5.70;;
9294;SDS011;4686;44.496;11.324;2023-07-20T03:07:04;13.00;;;5.73;;
9294;SDS011;4686;44.496;11.324;2023-07-20T03:09:32;6.83;;;5.07;;
9294;SDS011;4686;44.496;11.324;2023-07-20T03:11:59;9.50;;;6.13;;
9294;SDS011;4686;44.496;11.324;2023-07-20T03:14:27;9.87;;;5.60;;
9294;SDS011;4686;44.496;11.324;2023-07-20T03:16:55;6.80;;;5.47;;
9294;SDS011;4686;44.496;11.324;2023-07-20T03:19:23;6.97;;;5.33;;
9294;SDS011;4686;44.496;11.324;2023-07-20T03:21:50;8.93;;;5.70;;
9294;SDS011;4686;44.496;11.324;2023-07-20T03:24:17;8.67;;;5.90;;
9294;SDS011;4686;44.496;11.324;2023-07-20T03:26:44;12.73;;;5.90;;
9294;SDS011;4686;44.496;11.324;2023-07-20T03:29:11;8.63;;;5.80;;
9294;SDS011;4686;44.496;11.324;2023-07-20T03:31:41;11.83;;;6.47;;
9294;SDS011;4686;44.496;11.324;2023-07-20T03:34:09;9.70;;;5.60;;
9294;SDS011;4686;44.496;11.324;2023-07-20T03:36:37;9.43;;;5.50;;
9294;SDS011;4686;44.496;11.324;2023-07-20T03:39:04;12.37;;;5.60;;
9294;SDS011;4686;44.496;11.324;2023-07-20T03:41:31;7.70;;;5.53;;
9294;SDS011;4686;44.496;11.324;2023-07-20T03:43:59;8.03;;;5.80;;
9294;SDS011;4686;44.496;11.324;2023-07-20T03:46:26;9.63;;;5.30;;
9294;SDS011;4686;44.496;11.324;2023-07-20T03:48:53;8.73;;;5.83;;
9294;SDS011;4686;44.496;11.324;2023-07-20T03:51:22;10.80;;;6.13;;
9294;SDS011;4686;44.496;11.324;2023-07-20T03:53:49;11.17;;;5.93;;
9294;SDS011;4686;44.496;11.324;2023-07-20T03:56:17;12.00;;;5.60;;
9294;SDS011;4686;44.496;11.324;2023-07-20T03:58:44;10.60;;;5.53;;
9294;SDS011;4686;44.496;11.324;2023-07-20T04:01:11;10.03;;;5.87;;
9294;SDS011;4686;44.496;11.324;2023-07-20T04:03:39;6.50;;;5.60;;
9294;SDS011;4686;44.496;11.324;2023-07-20T04:06:07;11.90;;;5.53;;
9294;SDS011;4686;44.496;11.324;2023-07-20T04:08:36;15.10;;;5.77;;
9294;SDS011;4686;44.496;11.324;2023-07-20T04:11:03;11.80;;;5.50;;
9294;SDS011;4686;44.496;11.324;2023-07-20T04:13:31;13.57;;;11.33;;
9294;SDS011;4686;44.496;11.324;2023-07-20T04:15:59;15.50;;;9.20;;
9294;SDS011;4686;44.496;11.324;2023-07-20T04:18:27;14.27;;;8.00;;
9294;SDS011;4686;44.496;11.324;2023-07-20T04:20:55;9.50;;;6.20;;
9294;SDS011;4686;44.496;11.324;2023-07-20T04:23:22;11.90;;;5.83;;
9294;SDS011;4686;44.496;11.324;2023-07-20T04:25:50;10.33;;;6.60;;
9294;SDS011;4686;44.496;11.324;2023-07-20T04:28:18;9.80;;;5.77;;
9294;SDS011;4686;44.496;11.324;2023-07-20T04:30:49;12.63;;;6.40;;
9294;SDS011;4686;44.496;11.324;2023-07-20T04:33:17;13.47;;;8.27;;
9294;SDS011;4686;44.496;11.324;2023-07-20T04:35:45;15.37;;;6.40;;
9294;SDS011;4686;44.496;11.324;2023-07-20T04:38:13;9.20;;;6.90;;
9294;SDS011;4686;44.496;11.324;2023-07-20T04:40:40;10.80;;;6.83;;
9294;SDS011;4686;44.496;11.324;2023-07-20T04:43:09;11.43;;;5.93;;
9294;SDS011;4686;44.496;11.324;2023-07-20T04:45:36;9.07;;;5.80;;
9294;SDS011;4686;44.496;11.324;2023-07-20T04:48:05;10.13;;;5.60;;
9294;SDS011;4686;44.496;11.324;2023-07-20T04:50:33;10.80;;;6.20;;
9294;SDS011;4686;44.496;11.324;2023-07-20T04:53:00;9.97;;;5.97;;
9294;SDS011;4686;44.496;11.324;2023-07-20T04:55:28;10.80;;;5.87;;
9294;SDS011;4686;44.496;11.324;2023-07-20T04:57:55;14.67;;;5.53;;
9294;SDS011;4686;44.496;11.324;2023-07-20T05:00:24;6.90;;;5.40;;
9294;SDS011;4686;44.496;11.324;2023-07-20T05:02:51;9.40;;;5.93;;
9294;SDS011;4686;44.496;11.324;2023-07-20T05:05:18;11.23;;;5.83;;
9294;SDS011;4686;44.496;11.324;2023-07-20T05:07:46;7.30;;;5.57;;
9294;SDS011;4686;44.496;11.324;2023-07-20T05:10:13;13.80;;;5.80;;
9294;SDS011;4686;44.496;11.324;2023-07-20T05:12:41;8.93;;;5.90;;
9294;SDS011;4686;44.496;11.324;2023-07-20T05:15:08;8.60;;;6.00;;
9294;SDS011;4686;44.496;11.324;2023-07-20T05:17:37;11.23;;;6.30;;
9294;SDS011;4686;44.496;11.324;2023-07-20T05:20:05;11.23;;;6.07;;
9294;SDS011;4686;44.496;11.324;2023-07-20T05:22:34;12.37;;;6.60;;
9294;SDS011;4686;44.496;11.324;2023-07-20T05:25:05;11.00;;;6.60;;
9294;SDS011;4686;44.496;11.324;2023-07-20T05:27:32;11.80;;;6.50;;
9294;SDS011;4686;44.496;11.324;2023-07-20T05:30:00;14.57;;;7.10;;
9294;SDS011;4686;44.496;11.324;2023-07-20T05:32:27;11.47;;;6.43;;
9294;SDS011;4686;44.496;11.324;2023-07-20T05:34:56;14.27;;;6.50;;
9294;SDS011;4686;44.496;11.324;2023-07-20T05:37:23;21.80;;;7.40;;
9294;SDS011;4686;44.496;11.324;2023-07-20T05:39:50;11.80;;;7.77;;
9294;SDS011;4686;44.496;11.324;2023-07-20T05:42:17;13.17;;;7.30;;
9294;SDS011;4686;44.496;11.324;2023-07-20T05:44:45;11.80;;;6.80;;
9294;SDS011;4686;44.496;11.324;2023-07-20T05:47:13;19.50;;;7.80;;
9294;SDS011;4686;44.496;11.324;2023-07-20T05:49:40;10.53;;;7.17;;
9294;SDS011;4686;44.496;11.324;2023-07-20T05:52:09;20.50;;;7.63;;
9294;SDS011;4686;44.496;11.324;2023-07-20T05:54:36;14.40;;;7.27;;
9294;SDS011;4686;44.496;11.324;2023-07-20T05:57:04;16.83;;;7.20;;
9294;SDS011;4686;44.496;11.324;2023-07-20T05:59:31;15.97;;;7.23;;
9294;SDS011;4686;44.496;11.324;2023-07-20T06:01:58;11.70;;;7.00;;
9294;SDS011;4686;44.496;11.324;2023-07-20T06:04:25;11.83;;;6.87;;
9294;SDS011;4686;44.496;11.324;2023-07-20T06:06:53;13.40;;;6.53;;
9294;SDS011;4686;44.496;11.324;2023-07-20T06:09:21;8.50;;;7.17;;
9294;SDS011;4686;44.496;11.324;2023-07-20T06:11:49;12.43;;;6.00;;
9294;SDS011;4686;44.496;11.324;2023-07-20T06:14:16;15.07;;;6.20;;
9294;SDS011;4686;44.496;11.324;2023-07-20T06:16:43;13.43;;;6.47;;
9294;SDS011;4686;44.496;11.324;2023-07-20T06:19:11;14.10;;;6.43;;
9294;SDS011;4686;44.496;11.324;2023-07-20T06:21:38;7.77;;;5.97;;
9294;SDS011;4686;44.496;11.324;2023-07-20T06:24:06;16.47;;;7.03;;
9294;SDS011;4686;44.496;11.324;2023-07-20T06:26:34;23.97;;;7.20;;
9294;SDS011;4686;44.496;11.324;2023-07-20T06:29:04;11.30;;;6.60;;
9294;SDS011;4686;44.496;11.324;2023-07-20T06:31:32;18.40;;;7.40;;
9294;SDS011;4686;44.496;11.324;2023-07-20T06:33:59;14.77;;;6.97;;
9294;SDS011;4686;44.496;11.324;2023-07-20T06:36:27;15.37;;;7.20;;
9294;SDS011;4686;44.496;11.324;2023-07-20T06:38:54;18.00;;;7.40;;
9294;SDS011;4686;44.496;11.324;2023-07-20T06:41:21;14.40;;;6.13;;
9294;SDS011;4686;44.496;11.324;2023-07-20T06:43:50;10.07;;;6.80;;
9294;SDS011;4686;44.496;11.324;2023-07-20T06:46:17;11.50;;;6.10;;
9294;SDS011;4686;44.496;11.324;2023-07-20T06:48:45;16.07;;;6.53;;
9294;SDS011;4686;44.496;11.324;2023-07-20T06:51:12;14.70;;;7.33;;
9294;SDS011;4686;44.496;11.324;2023-07-20T06:53:40;8.50;;;7.00;;
9294;SDS011;4686;44.496;11.324;2023-07-20T06:56:07;12.40;;;6.70;;
9294;SDS011;4686;44.496;11.324;2023-07-20T06:58:34;14.23;;;7.57;;
9294;SDS011;4686;44.496;11.324;2023-07-20T07:01:05;12.87;;;7.20;;
9294;SDS011;4686;44.496;11.324;2023-07-20T07:03:33;8.90;;;6.30;;
9294;SDS011;4686;44.496;11.324;2023-07-20T07:06:00;19.10;;;6.90;;
9294;SDS011;4686;44.496;11.324;2023-07-20T07:08:28;13.70;;;6.93;;
9294;SDS011;4686;44.496;11.324;2023-07-20T07:10:57;18.23;;;7.80;;
9294;SDS011;4686;44.496;11.324;2023-07-20T07:13:25;16.70;;;8.03;;
9294;SDS011;4686;44.496;11.324;2023-07-20T07:15:55;12.73;;;6.50;;
9294;SDS011;4686;44.496;11.324;2023-07-20T07:18:24;14.03;;;7.50;;
9294;SDS011;4686;44.496;11.324;2023-07-20T07:20:51;16.50;;;7.80;;
9294;SDS011;4686;44.496;11.324;2023-07-20T07:23:19;14.63;;;7.37;;
9294;SDS011;4686;44.496;11.324;2023-07-20T07:25:46;14.53;;;8.10;;
9294;SDS011;4686;44.496;11.324;2023-07-20T07:28:15;12.73;;;7.50;;
9294;SDS011;4686;44.496;11.324;2023-07-20T07:30:43;25.50;;;7.90;;
9294;SDS011;4686;44.496;11.324;2023-07-20T07:33:10;21.50;;;8.00;;
9294;SDS011;4686;44.496;11.324;2023-07-20T07:35:40;21.73;;;6.93;;
9294;SDS011;4686;44.496;11.324;2023-07-20T07:38:07;14.00;;;7.13;;
9294;SDS011;4686;44.496;11.324;2023-07-20T07:40:34;12.40;;;7.27;;
9294;SDS011;4686;44.496;11.324;2023-07-20T07:43:02;19.23;;;8.40;;
9294;SDS011;4686;44.496;11.324;2023-07-20T07:45:30;13.20;;;7.60;;
9294;SDS011;4686;44.496;11.324;2023-07-20T07:47:57;21.97;;;8.00;;
9294;SDS011;4686;44.496;11.324;2023-07-20T07:50:25;13.57;;;7.87;;
9294;SDS011;4686;44.496;11.324;2023-07-20T07:52:55;12.40;;;7.40;;
9294;SDS011;4686;44.496;11.324;2023-07-20T07:55:22;12.20;;;7.17;;
9294;SDS011;4686;44.496;11.324;2023-07-20T07:57:49;16.50;;;7.57;;
9294;SDS011;4686;44.496;11.324;2023-07-20T08:00:17;20.90;;;7.93;;
9294;SDS011;4686;44.496;11.324;2023-07-20T08:02:44;17.90;;;7.37;;
9294;SDS011;4686;44.496;11.324;2023-07-20T08:05:13;14.23;;;7.20;;
9294;SDS011;4686;44.496;11.324;2023-07-20T08:07:40;13.77;;;7.97;;
9294;SDS011;4686;44.496;11.324;2023-07-20T08:10:09;18.67;;;7.30;;
9294;SDS011;4686;44.496;11.324;2023-07-20T08:12:37;16.27;;;8.33;;
9294;SDS011;4686;44.496;11.324;2023-07-20T08:15:04;18.67;;;8.43;;
9294;SDS011;4686;44.496;11.324;2023-07-20T08:17:31;13.20;;;8.13;;
9294;SDS011;4686;44.496;11.324;2023-07-20T08:19:59;12.13;;;8.10;;
9294;SDS011;4686;44.496;11.324;2023-07-20T08:22:26;17.30;;;8.20;;
9294;SDS011;4686;44.496;11.324;2023-07-20T08:24:54;13.80;;;8.10;;
9294;SDS011;4686;44.496;11.324;2023-07-20T08:27:22;13.70;;;7.97;;
9294;SDS011;4686;44.496;11.324;2023-07-20T08:29:50;14.87;;;9.00;;
9294;SDS011;4686;44.496;11.324;2023-07-20T08:32:17;15.40;;;8.50;;
9294;SDS011;4686;44.496;11.324;2023-07-20T08:34:44;17.23;;;8.97;;
9294;SDS011;4686;44.496;11.324;2023-07-20T08:37:12;14.13;;;8.47;;
9294;SDS011;4686;44.496;11.324;2023-07-20T08:39:39;19.83;;;9.80;;
9294;SDS011;4686;44.496;11.324;2023-07-20T08:42:06;25.50;;;10.00;;
9294;SDS011;4686;44.496;11.324;2023-07-20T08:44:36;15.17;;;9.93;;
9294;SDS011;4686;44.496;11.324;2023-07-20T08:47:10;16.30;;;9.50;;
9294;SDS011;4686;44.496;11.324;2023-07-20T08:49:38;15.47;;;10.17;;
9294;SDS011;4686;44.496;11.324;2023-07-20T08:52:06;17.90;;;10.07;;
9294;SDS011;4686;44.496;11.324;2023-07-20T08:54:34;19.53;;;10.63;;
9294;SDS011;4686;44.496;11.324;2023-07-20T08:57:02;12.40;;;9.63;;
9294;SDS011;4686;44.496;11.324;2023-07-20T08:59:29;16.50;;;10.53;;
9294;SDS011;4686;44.496;11.324;2023-07-20T09:01:58;17.57;;;10.60;;
9294;SDS011;4686;44.496;11.324;2023-07-20T09:04:26;26.30;;;11.17;;
9294;SDS011;4686;44.496;11.324;2023-07-20T09:06:53;16.37;;;10.00;;
9294;SDS011;4686;44.496;11.324;2023-07-20T09:09:20;17.23;;;10.10;;
9294;SDS011;4686;44.496;11.324;2023-07-20T09:11:48;20.33;;;10.77;;
9294;SDS011;4686;44.496;11.324;2023-07-20T09:14:16;18.00;;;10.30;;
9294;SDS011;4686;44.496;11.324;2023-07-20T09:16:46;17.77;;;9.90;;
9294;SDS011;4686;44.496;11.324;2023-07-20T09:19:16;19.10;;;9.93;;
9294;SDS011;4686;44.496;11.324;2023-07-20T09:21:44;29.17;;;11.63;;
9294;SDS011;4686;44.496;11.324;2023-07-20T09:24:12;17.80;;;10.37;;
9294;SDS011;4686;44.496;11.324;2023-07-20T09:26:43;17.10;;;9.70;;
9294;SDS011;4686;44.496;11.324;2023-07-20T09:29:11;25.17;;;9.87;;
9294;SDS011;4686;44.496;11.324;2023-07-20T09:31:38;16.67;;;10.00;;
9294;SDS011;4686;44.496;11.324;2023-07-20T09:34:06;21.80;;;9.90;;
9294;SDS011;4686;44.496;11.324;2023-07-20T09:36:36;16.43;;;10.50;;
9294;SDS011;4686;44.496;11.324;2023-07-20T09:39:03;22.33;;;10.30;;
9294;SDS011;4686;44.496;11.324;2023-07-20T09:41:39;15.30;;;10.07;;
9294;SDS011;4686;44.496;11.324;2023-07-20T09:44:07;17.30;;;9.50;;
9294;SDS011;4686;44.496;11.324;2023-07-20T09:46:41;25.43;;;10.33;;
9294;SDS011;4686;44.496;11.324;2023-07-20T09:49:09;17.10;;;9.40;;
9294;SDS011;4686;44.496;11.324;2023-07-20T09:51:37;15.03;;;9.13;;
9294;SDS011;4686;44.496;11.324;2023-07-20T09:54:05;15.40;;;9.67;;
9294;SDS011;4686;44.496;11.324;2023-07-20T09:56:32;18.00;;;9.70;;
9294;SDS011;4686;44.496;11.324;2023-07-20T09:59:00;18.53;;;10.43;;
9294;SDS011;4686;44.496;11.324;2023-07-20T10:01:27;18.23;;;9.90;;
9294;SDS011;4686;44.496;11.324;2023-07-20T10:03:56;23.03;;;10.00;;
9294;SDS011;4686;44.496;11.324;2023-07-20T10:06:26;12.70;;;8.87;;
9294;SDS011;4686;44.496;11.324;2023-07-20T10:09:00;11.90;;;9.70;;
9294;SDS011;4686;44.496;11.324;2023-07-20T10:11:30;15.70;;;10.33;;
9294;SDS011;4686;44.496;11.324;2023-07-20T10:13:59;16.80;;;10.30;;
9294;SDS011;4686;44.496;11.324;2023-07-20T10:16:28;18.93;;;10.10;;
9294;SDS011;4686;44.496;11.324;2023-07-20T10:18:59;16.90;;;10.60;;
9294;SDS011;4686;44.496;11.324;2023-07-20T10:21:29;20.87;;;11.37;;
9294;SDS011;4686;44.496;11.324;2023-07-20T10:23:57;18.37;;;9.80;;
9294;SDS011;4686;44.496;11.324;2023-07-20T10:26:25;20.57;;;10.07;;
9294;SDS011;4686;44.496;11.324;2023-07-20T10:28:53;21.50;;;11.07;;
9294;SDS011;4686;44.496;11.324;2023-07-20T10:31:20;19.17;;;10.00;;
9294;SDS011;4686;44.496;11.324;2023-07-20T10:33:48;17.17;;;10.47;;
9294;SDS011;4686;44.496;11.324;2023-07-20T10:36:21;20.20;;;10.80;;
9294;SDS011;4686;44.496;11.324;2023-07-20T10:38:52;21.77;;;10.37;;
9294;SDS011;4686;44.496;11.324;2023-07-20T10:41:26;17.20;;;10.20;;
9294;SDS011;4686;44.496;11.324;2023-07-20T10:43:57;15.10;;;9.80;;
9294;SDS011;4686;44.496;11.324;2023-07-20T10:46:41;16.53;;;10.07;;
9294;SDS011;4686;44.496;11.324;2023-07-20T10:49:10;17.90;;;9.37;;
9294;SDS011;4686;44.496;11.324;2023-07-20T10:51:40;19.50;;;10.53;;
9294;SDS011;4686;44.496;11.324;2023-07-20T10:54:07;27.10;;;10.83;;
9294;SDS011;4686;44.496;11.324;2023-07-20T10:56:36;23.87;;;11.20;;
9294;SDS011;4686;44.496;11.324;2023-07-20T10:59:04;23.00;;;9.73;;
9294;SDS011;4686;44.496;11.324;2023-07-20T11:01:44;17.57;;;10.53;;
9294;SDS011;4686;44.496;11.324;2023-07-20T11:04:12;20.53;;;10.10;;
9294;SDS011;4686;44.496;11.324;2023-07-20T11:06:42;20.50;;;10.10;;
9294;SDS011;4686;44.496;11.324;2023-07-20T11:09:09;23.37;;;10.90;;
9294;SDS011;4686;44.496;11.324;2023-07-20T11:11:40;29.80;;;10.63;;
9294;SDS011;4686;44.496;11.324;2023-07-20T11:14:09;27.30;;;10.63;;
9294;SDS011;4686;44.496;11.324;2023-07-20T11:16:40;26.33;;;12.47;;
9294;SDS011;4686;44.496;11.324;2023-07-20T11:19:14;24.80;;;11.00;;
9294;SDS011;4686;44.496;11.324;2023-07-20T11:21:43;20.00;;;11.87;;
9294;SDS011;4686;44.496;11.324;2023-07-20T11:24:10;24.93;;;11.97;;
9294;SDS011;4686;44.496;11.324;2023-07-20T11:26:46;21.07;;;11.50;;
9294;SDS011;4686;44.496;11.324;2023-07-20T11:29:14;22.17;;;11.90;;
9294;SDS011;4686;44.496;11.324;2023-07-20T11:31:42;21.10;;;11.53;;
9294;SDS011;4686;44.496;11.324;2023-07-20T11:34:11;17.10;;;11.33;;
9294;SDS011;4686;44.496;11.324;2023-07-20T11:36:39;20.70;;;11.53;;
9294;SDS011;4686;44.496;11.324;2023-07-20T11:39:08;20.53;;;11.70;;
9294;SDS011;4686;44.496;11.324;2023-07-20T11:41:35;20.20;;;11.30;;
9294;SDS011;4686;44.496;11.324;2023-07-20T11:44:05;21.03;;;11.10;;
9294;SDS011;4686;44.496;11.324;2023-07-20T11:46:32;20.90;;;10.67;;
9294;SDS011;4686;44.496;11.324;2023-07-20T11:49:00;24.37;;;12.83;;
9294;SDS011;4686;44.496;11.324;2023-07-20T11:51:28;18.00;;;13.50;;
9294;SDS011;4686;44.496;11.324;2023-07-20T11:53:56;21.53;;;10.80;;
9294;SDS011;4686;44.496;11.324;2023-07-20T11:56:24;21.17;;;10.83;;
9294;SDS011;4686;44.496;11.324;2023-07-20T11:58:54;24.03;;;14.10;;
9294;SDS011;4686;44.496;11.324;2023-07-20T12:01:25;21.60;;;11.30;;
9294;SDS011;4686;44.496;11.324;2023-07-20T12:03:56;24.33;;;12.63;;
9294;SDS011;4686;44.496;11.324;2023-07-20T12:06:24;15.90;;;11.53;;
9294;SDS011;4686;44.496;11.324;2023-07-20T12:08:54;20.83;;;11.33;;
9294;SDS011;4686;44.496;11.324;2023-07-20T12:11:31;23.33;;;12.27;;
9294;SDS011;4686;44.496;11.324;2023-07-20T12:13:58;19.97;;;10.80;;
9294;SDS011;4686;44.496;11.324;2023-07-20T12:16:28;26.53;;;10.13;;
9294;SDS011;4686;44.496;11.324;2023-07-20T12:18:59;19.30;;;10.77;;
9294;SDS011;4686;44.496;11.324;2023-07-20T12:21:26;19.77;;;11.80;;
9294;SDS011;4686;44.496;11.324;2023-07-20T12:23:55;14.77;;;10.00;;
9294;SDS011;4686;44.496;11.324;2023-07-20T12:26:22;22.60;;;12.90;;
9294;SDS011;4686;44.496;11.324;2023-07-20T12:28:50;19.30;;;10.37;;
9294;SDS011;4686;44.496;11.324;2023-07-20T12:31:18;20.07;;;11.90;;
9294;SDS011;4686;44.496;11.324;2023-07-20T12:33:47;21.77;;;11.27;;
9294;SDS011;4686;44.496;11.324;2023-07-20T12:36:15;20.07;;;11.80;;
9294;SDS011;4686;44.496;11.324;2023-07-20T12:38:42;20.60;;;11.23;;
9294;SDS011;4686;44.496;11.324;2023-07-20T12:41:10;20.80;;;11.37;;
9294;SDS011;4686;44.496;11.324;2023-07-20T12:43:38;18.93;;;11.47;;
9294;SDS011;4686;44.496;11.324;2023-07-20T12:46:06;28.00;;;11.77;;
9294;SDS011;4686;44.496;11.324;2023-07-20T12:48:33;24.67;;;10.10;;
9294;SDS011;4686;44.496;11.324;2023-07-20T12:51:03;28.80;;;10.63;;
9294;SDS011;4686;44.496;11.324;2023-07-20T12:53:30;19.80;;;10.90;;
9294;SDS011;4686;44.496;11.324;2023-07-20T12:55:58;19.83;;;10.50;;
9294;SDS011;4686;44.496;11.324;2023-07-20T12:58:26;22.20;;;10.77;;
9294;SDS011;4686;44.496;11.324;2023-07-20T13:00:53;22.57;;;10.87;;
9294;SDS011;4686;44.496;11.324;2023-07-20T13:03:20;18.93;;;11.13;;
9294;SDS011;4686;44.496;11.324;2023-07-20T13:05:48;17.27;;;11.53;;
9294;SDS011;4686;44.496;11.324;2023-07-20T13:08:17;23.90;;;12.20;;
9294;SDS011;4686;44.496;11.324;2023-07-20T13:10:45;16.83;;;10.10;;
9294;SDS011;4686;44.496;11.324;2023-07-20T13:13:13;22.87;;;13.10;;
9294;SDS011;4686;44.496;11.324;2023-07-20T13:15:41;17.70;;;9.80;;
9294;SDS011;4686;44.496;11.324;2023-07-20T13:18:09;18.67;;;10.40;;
9294;SDS011;4686;44.496;11.324;2023-07-20T13:20:36;27.33;;;10.57;;
9294;SDS011;4686;44.496;11.324;2023-07-20T13:23:04;20.27;;;12.30;;
9294;SDS011;4686;44.496;11.324;2023-07-20T13:25:33;20.60;;;11.00;;
9294;SDS011;4686;44.496;11.324;2023-07-20T13:28:00;23.17;;;10.33;;
9294;SDS011;4686;44.496;11.324;2023-07-20T13:30:27;17.60;;;10.80;;
9294;SDS011;4686;44.496;11.324;2023-07-20T13:32:55;25.07;;;9.93;;
9294;SDS011;4686;44.496;11.324;2023-07-20T13:35:22;18.07;;;9.67;;
9294;SDS011;4686;44.496;11.324;2023-07-20T13:37:49;19.77;;;10.27;;
9294;SDS011;4686;44.496;11.324;2023-07-20T13:40:16;20.87;;;11.10;;
9294;SDS011;4686;44.496;11.324;2023-07-20T13:42:46;21.43;;;10.27;;
9294;SDS011;4686;44.496;11.324;2023-07-20T13:45:13;18.70;;;10.97;;
9294;SDS011;4686;44.496;11.324;2023-07-20T13:47:42;17.30;;;10.13;;
9294;SDS011;4686;44.496;11.324;2023-07-20T13:50:10;17.70;;;9.73;;
9294;SDS011;4686;44.496;11.324;2023-07-20T13:52:37;21.10;;;10.13;;
9294;SDS011;4686;44.496;11.324;2023-07-20T13:55:05;15.97;;;9.63;;
9294;SDS011;4686;44.496;11.324;2023-07-20T13:57:32;19.23;;;10.10;;
9294;SDS011;4686;44.496;11.324;2023-07-20T14:00:01;23.00;;;10.50;;
9294;SDS011;4686;44.496;11.324;2023-07-20T14:02:29;19.60;;;9.60;;
9294;SDS011;4686;44.496;11.324;2023-07-20T14:04:57;27.40;;;9.33;;
9294;SDS011;4686;44.496;11.324;2023-07-20T14:07:25;23.00;;;9.90;;
9294;SDS011;4686;44.496;11.324;2023-07-20T14:09:52;17.57;;;11.10;;
9294;SDS011;4686;44.496;11.324;2023-07-20T14:12:19;17.00;;;10.37;;
9294;SDS011;4686;44.496;11.324;2023-07-20T14:14:47;15.30;;;9.27;;
9294;SDS011;4686;44.496;11.324;2023-07-20T14:17:15;26.60;;;10.97;;
9294;SDS011;4686;44.496;11.324;2023-07-20T14:19:43;21.10;;;9.97;;
9294;SDS011;4686;44.496;11.324;2023-07-20T14:22:10;16.23;;;10.90;;
9294;SDS011;4686;44.496;11.324;2023-07-20T14:24:38;20.93;;;9.73;;
9294;SDS011;4686;44.496;11.324;2023-07-20T14:27:05;22.80;;;10.63;;
9294;SDS011;4686;44.496;11.324;2023-07-20T14:29:32;15.13;;;10.10;;
9294;SDS011;4686;44.496;11.324;2023-07-20T14:32:01;23.87;;;10.57;;
9294;SDS011;4686;44.496;11.324;2023-07-20T14:34:32;18.13;;;11.20;;
9294;SDS011;4686;44.496;11.324;2023-07-20T14:37:00;16.87;;;10.87;;
9294;SDS011;4686;44.496;11.324;2023-07-20T14:39:27;19.43;;;10.00;;
9294;SDS011;4686;44.496;11.324;2023-07-20T14:41:55;26.90;;;11.27;;
9294;SDS011;4686;44.496;11.324;2023-07-20T14:44:22;21.13;;;11.70;;
9294;SDS011;4686;44.496;11.324;2023-07-20T14:46:49;23.97;;;9.87;;
9294;SDS011;4686;44.496;11.324;2023-07-20T14:49:17;19.20;;;11.70;;
9294;SDS011;4686;44.496;11.324;2023-07-20T14:51:46;20.57;;;10.70;;